sensor_id;sensor_type;location;lat;lon;timestamp;pressure;altitude;pressure_sealevel;temperature;humidity
17060;BME280;8646;49.716;9.266;2024-01-30T00:02:00;101757.47;;;2.20;92.25
17060;BME280;8646;49.716;9.266;2024-01-30T00:05:05;101766.31;;;2.16;92.33
17060;BME280;8646;49.716;9.266;2024-01-30T00:08:08;101757.50;;;2.23;92.34
17060;BME280;8646;49.716;9.266;2024-01-30T00:11:11;101768.19;;;2.23;92.47
17060;BME280;8646;49.716;9.266;2024-01-30T00:14:14;101767.47;;;2.33;92.34
17060;BME280;8646;49.716;9.266;2024-01-30T00:17:17;101761.19;;;2.31;92.19
17060;BME280;8646;49.716;9.266;2024-01-30T00:20:22;101767.16;;;2.13;92.88
17060;BME280;8646;49.716;9.266;2024-01-30T00:23:25;101772.50;;;2.13;93.22
17060;BME280;8646;49.716;9.266;2024-01-30T00:26:28;101770.72;;;2.11;93.34
17060;BME280;8646;49.716;9.266;2024-01-30T00:29:30;101768.03;;;2.11;93.75
17060;BME280;8646;49.716;9.266;2024-01-30T00:32:35;101773.38;;;2.11;93.98
17060;BME280;8646;49.716;9.266;2024-01-30T00:35:39;101770.78;;;2.17;93.60
17060;BME280;8646;49.716;9.266;2024-01-30T00:38:42;101759.25;;;2.18;93.68
17060;BME280;8646;49.716;9.266;2024-01-30T00:41:45;101771.78;;;2.23;93.83
17060;BME280;8646;49.716;9.266;2024-01-30T00:44:48;101773.41;;;2.14;94.20
17060;BME280;8646;49.716;9.266;2024-01-30T00:47:51;101762.94;;;2.29;93.82
17060;BME280;8646;49.716;9.266;2024-01-30T00:50:55;101775.41;;;2.27;94.11
17060;BME280;8646;49.716;9.266;2024-01-30T00:53:58;101778.63;;;2.06;94.40
17060;BME280;8646;49.716;9.266;2024-01-30T00:57:01;101775.16;;;2.12;94.61
17060;BME280;8646;49.716;9.266;2024-01-30T01:00:05;101779.06;;;2.37;93.97
17060;BME280;8646;49.716;9.266;2024-01-30T01:03:10;101773.56;;;2.24;93.86
17060;BME280;8646;49.716;9.266;2024-01-30T01:06:14;101771.53;;;2.07;94.42
17060;BME280;8646;49.716;9.266;2024-01-30T01:09:17;101776.81;;;2.04;94.82
17060;BME280;8646;49.716;9.266;2024-01-30T01:12:20;101773.19;;;1.99;95.06
17060;BME280;8646;49.716;9.266;2024-01-30T01:15:23;101699.56;;;1.54;94.97
17060;BME280;8646;49.716;9.266;2024-01-30T01:18:30;101761.69;;;2.04;95.00
17060;BME280;8646;49.716;9.266;2024-01-30T01:21:34;101773.66;;;2.32;93.96
17060;BME280;8646;49.716;9.266;2024-01-30T01:24:37;101746.50;;;2.00;94.54
17060;BME280;8646;49.716;9.266;2024-01-30T01:27:40;101767.22;;;2.16;94.02
17060;BME280;8646;49.716;9.266;2024-01-30T01:30:44;101767.03;;;2.04;94.47
17060;BME280;8646;49.716;9.266;2024-01-30T01:33:48;101780.53;;;2.15;94.40
17060;BME280;8646;49.716;9.266;2024-01-30T01:36:52;101777.75;;;2.07;94.29
17060;BME280;8646;49.716;9.266;2024-01-30T01:39:56;101778.56;;;2.00;94.66
17060;BME280;8646;49.716;9.266;2024-01-30T01:43:03;101674.34;;;1.35;94.60
17060;BME280;8646;49.716;9.266;2024-01-30T01:46:06;101744.41;;;1.79;94.58
17060;BME280;8646;49.716;9.266;2024-01-30T01:49:11;101764.13;;;1.89;94.82
17060;BME280;8646;49.716;9.266;2024-01-30T01:52:17;101744.28;;;1.70;94.93
17060;BME280;8646;49.716;9.266;2024-01-30T01:55:21;101767.66;;;1.88;94.81
17060;BME280;8646;49.716;9.266;2024-01-30T01:58:27;101760.38;;;1.76;94.64
17060;BME280;8646;49.716;9.266;2024-01-30T02:01:32;101770.72;;;2.11;94.61
17060;BME280;8646;49.716;9.266;2024-01-30T02:04:37;101768.09;;;2.15;94.09
17060;BME280;8646;49.716;9.266;2024-01-30T02:07:42;101739.34;;;1.98;94.17
17060;BME280;8646;49.716;9.266;2024-01-30T02:10:45;101767.69;;;1.89;94.89
17060;BME280;8646;49.716;9.266;2024-01-30T02:13:48;101767.53;;;1.77;95.74
17060;BME280;8646;49.716;9.266;2024-01-30T02:16:51;101766.59;;;1.75;96.01
17060;BME280;8646;49.716;9.266;2024-01-30T02:19:54;101757.16;;;1.99;95.14
17060;BME280;8646;49.716;9.266;2024-01-30T02:22:59;101760.75;;;2.01;95.64
17060;BME280;8646;49.716;9.266;2024-01-30T02:26:03;101758.88;;;1.94;95.73
17060;BME280;8646;49.716;9.266;2024-01-30T02:29:06;101757.91;;;1.90;95.86
17060;BME280;8646;49.716;9.266;2024-01-30T02:32:09;101764.88;;;1.80;96.09
17060;BME280;8646;49.716;9.266;2024-01-30T02:35:12;101753.47;;;1.90;95.84
17060;BME280;8646;49.716;9.266;2024-01-30T02:38:16;101749.84;;;1.87;95.59
17060;BME280;8646;49.716;9.266;2024-01-30T02:41:19;101748.00;;;1.81;95.65
17060;BME280;8646;49.716;9.266;2024-01-30T02:44:23;101756.63;;;1.65;96.16
17060;BME280;8646;49.716;9.266;2024-01-30T02:47:25;101759.13;;;1.54;96.56
17060;BME280;8646;49.716;9.266;2024-01-30T02:50:28;101753.09;;;1.66;96.67
17060;BME280;8646;49.716;9.266;2024-01-30T02:53:32;101762.81;;;1.61;96.92
17060;BME280;8646;49.716;9.266;2024-01-30T02:56:35;101761.16;;;1.69;96.48
17060;BME280;8646;49.716;9.266;2024-01-30T02:59:38;101763.69;;;1.60;96.52
17060;BME280;8646;49.716;9.266;2024-01-30T03:02:41;101716.91;;;1.31;97.04
17060;BME280;8646;49.716;9.266;2024-01-30T03:05:44;101756.28;;;1.44;96.94
17060;BME280;8646;49.716;9.266;2024-01-30T03:08:49;101748.31;;;1.47;97.17
17060;BME280;8646;49.716;9.266;2024-01-30T03:11:52;101756.31;;;1.47;97.51
17060;BME280;8646;49.716;9.266;2024-01-30T03:14:54;101756.13;;;1.35;96.94
17060;BME280;8646;49.716;9.266;2024-01-30T03:17:57;101754.41;;;1.37;97.01
17060;BME280;8646;49.716;9.266;2024-01-30T03:21:00;101755.75;;;1.65;96.59
17060;BME280;8646;49.716;9.266;2024-01-30T03:24:05;101757.31;;;1.52;96.30
17060;BME280;8646;49.716;9.266;2024-01-30T03:27:08;101750.88;;;1.38;97.30
17060;BME280;8646;49.716;9.266;2024-01-30T03:30:11;101747.25;;;1.36;97.23
17060;BME280;8646;49.716;9.266;2024-01-30T03:33:14;101753.41;;;1.32;97.60
17060;BME280;8646;49.716;9.266;2024-01-30T03:36:17;101756.91;;;1.28;97.63
17060;BME280;8646;49.716;9.266;2024-01-30T03:39:21;101742.03;;;1.42;97.11
17060;BME280;8646;49.716;9.266;2024-01-30T03:42:24;101755.53;;;1.51;97.12
17060;BME280;8646;49.716;9.266;2024-01-30T03:45:27;101703.09;;;1.02;97.49
17060;BME280;8646;49.716;9.266;2024-01-30T03:48:29;101762.38;;;1.35;97.49
17060;BME280;8646;49.716;9.266;2024-01-30T03:51:33;101760.41;;;1.25;97.70
17060;BME280;8646;49.716;9.266;2024-01-30T03:54:37;101763.06;;;1.25;97.79
17060;BME280;8646;49.716;9.266;2024-01-30T03:57:40;101752.50;;;1.30;97.55
17060;BME280;8646;49.716;9.266;2024-01-30T04:00:43;101755.97;;;1.26;97.38
17060;BME280;8646;49.716;9.266;2024-01-30T04:03:46;101751.19;;;1.58;96.77
17060;BME280;8646;49.716;9.266;2024-01-30T04:06:49;101746.56;;;1.47;96.25
17060;BME280;8646;49.716;9.266;2024-01-30T04:09:54;101753.22;;;1.21;97.29
17060;BME280;8646;49.716;9.266;2024-01-30T04:12:57;101761.97;;;1.12;97.86
17060;BME280;8646;49.716;9.266;2024-01-30T04:16:00;101654.38;;;0.61;97.66
17060;BME280;8646;49.716;9.266;2024-01-30T04:19:04;101749.59;;;1.18;97.95
17060;BME280;8646;49.716;9.266;2024-01-30T04:22:07;101746.47;;;1.41;96.99
17060;BME280;8646;49.716;9.266;2024-01-30T04:25:11;101748.91;;;1.28;96.98
17060;BME280;8646;49.716;9.266;2024-01-30T04:28:14;101745.06;;;1.12;98.20
17060;BME280;8646;49.716;9.266;2024-01-30T04:31:17;101761.03;;;1.10;98.42
17060;BME280;8646;49.716;9.266;2024-01-30T04:34:20;101745.31;;;1.27;97.97
17060;BME280;8646;49.716;9.266;2024-01-30T04:37:23;101740.31;;;1.47;97.20
17060;BME280;8646;49.716;9.266;2024-01-30T04:40:27;101745.47;;;1.35;97.27
17060;BME280;8646;49.716;9.266;2024-01-30T04:43:31;101745.97;;;1.14;98.35
17060;BME280;8646;49.716;9.266;2024-01-30T04:46:33;101747.16;;;1.30;98.22
17060;BME280;8646;49.716;9.266;2024-01-30T04:49:36;101744.00;;;1.02;98.62
17060;BME280;8646;49.716;9.266;2024-01-30T04:52:39;101742.00;;;0.92;98.77
17060;BME280;8646;49.716;9.266;2024-01-30T04:55:43;101758.00;;;0.92;98.83
17060;BME280;8646;49.716;9.266;2024-01-30T04:58:46;101751.81;;;0.93;99.05
17060;BME280;8646;49.716;9.266;2024-01-30T05:01:50;101753.56;;;0.93;99.13
17060;BME280;8646;49.716;9.266;2024-01-30T05:04:53;101741.97;;;0.89;99.21
17060;BME280;8646;49.716;9.266;2024-01-30T05:07:56;101749.97;;;0.89;99.36
17060;BME280;8646;49.716;9.266;2024-01-30T05:11:01;101760.56;;;0.86;99.00
17060;BME280;8646;49.716;9.266;2024-01-30T05:14:05;101758.84;;;0.88;99.17
17060;BME280;8646;49.716;9.266;2024-01-30T05:17:08;101767.63;;;0.84;99.19
17060;BME280;8646;49.716;9.266;2024-01-30T05:20:14;101766.25;;;1.04;98.76
17060;BME280;8646;49.716;9.266;2024-01-30T05:23:17;101759.31;;;1.15;97.48
17060;BME280;8646;49.716;9.266;2024-01-30T05:26:21;101753.50;;;0.90;98.19
17060;BME280;8646;49.716;9.266;2024-01-30T05:29:24;101757.97;;;0.89;98.35
17060;BME280;8646;49.716;9.266;2024-01-30T05:32:27;101769.47;;;0.87;98.45
17060;BME280;8646;49.716;9.266;2024-01-30T05:35:30;101764.03;;;0.82;98.62
17060;BME280;8646;49.716;9.266;2024-01-30T05:38:33;101766.69;;;0.81;98.82
17060;BME280;8646;49.716;9.266;2024-01-30T05:41:37;101762.25;;;0.81;98.73
17060;BME280;8646;49.716;9.266;2024-01-30T05:44:40;101767.50;;;0.78;98.46
17060;BME280;8646;49.716;9.266;2024-01-30T05:47:43;101774.22;;;1.03;98.23
17060;BME280;8646;49.716;9.266;2024-01-30T05:50:46;101764.81;;;1.23;97.16
17060;BME280;8646;49.716;9.266;2024-01-30T05:53:48;101761.09;;;1.15;97.70
17060;BME280;8646;49.716;9.266;2024-01-30T05:56:53;101765.13;;;0.93;98.53
17060;BME280;8646;49.716;9.266;2024-01-30T05:59:56;101768.53;;;0.85;98.64
17060;BME280;8646;49.716;9.266;2024-01-30T06:02:58;101768.44;;;0.82;98.55
17060;BME280;8646;49.716;9.266;2024-01-30T06:06:01;101769.34;;;0.82;98.55
17060;BME280;8646;49.716;9.266;2024-01-30T06:09:04;101763.09;;;0.79;98.66
17060;BME280;8646;49.716;9.266;2024-01-30T06:12:08;101773.72;;;0.77;98.78
17060;BME280;8646;49.716;9.266;2024-01-30T06:15:13;101778.09;;;0.75;98.76
17060;BME280;8646;49.716;9.266;2024-01-30T06:18:16;101776.28;;;0.74;98.75
17060;BME280;8646;49.716;9.266;2024-01-30T06:21:19;101775.41;;;0.73;98.72
17060;BME280;8646;49.716;9.266;2024-01-30T06:24:22;101787.84;;;0.73;98.52
17060;BME280;8646;49.716;9.266;2024-01-30T06:27:26;101767.44;;;0.75;98.38
17060;BME280;8646;49.716;9.266;2024-01-30T06:30:29;101781.59;;;0.71;98.38
17060;BME280;8646;49.716;9.266;2024-01-30T06:33:31;101781.63;;;0.72;98.40
17060;BME280;8646;49.716;9.266;2024-01-30T06:36:34;101779.84;;;0.73;98.65
17060;BME280;8646;49.716;9.266;2024-01-30T06:39:37;101774.53;;;0.74;98.37
17060;BME280;8646;49.716;9.266;2024-01-30T06:42:41;101741.97;;;0.46;98.55
17060;BME280;8646;49.716;9.266;2024-01-30T06:45:44;101733.06;;;0.44;98.14
17060;BME280;8646;49.716;9.266;2024-01-30T06:48:47;101777.13;;;0.70;98.26
17060;BME280;8646;49.716;9.266;2024-01-30T06:51:50;101795.03;;;0.77;98.45
17060;BME280;8646;49.716;9.266;2024-01-30T06:54:53;101781.66;;;0.75;98.23
17060;BME280;8646;49.716;9.266;2024-01-30T06:57:57;101788.75;;;0.75;98.20
17060;BME280;8646;49.716;9.266;2024-01-30T07:01:00;101787.03;;;0.77;98.35
17060;BME280;8646;49.716;9.266;2024-01-30T07:04:03;101783.66;;;0.86;98.12
17060;BME280;8646;49.716;9.266;2024-01-30T07:07:06;101774.19;;;1.01;97.85
17060;BME280;8646;49.716;9.266;2024-01-30T07:10:14;101728.28;;;0.71;97.63
17060;BME280;8646;49.716;9.266;2024-01-30T07:13:18;101785.72;;;1.00;98.11
17060;BME280;8646;49.716;9.266;2024-01-30T07:16:21;101792.72;;;0.95;98.19
17060;BME280;8646;49.716;9.266;2024-01-30T07:19:25;101789.25;;;0.99;98.00
17060;BME280;8646;49.716;9.266;2024-01-30T07:22:27;101786.59;;;1.01;97.82
17060;BME280;8646;49.716;9.266;2024-01-30T07:25:30;101793.91;;;1.11;97.66
17060;BME280;8646;49.716;9.266;2024-01-30T07:28:35;101746.00;;;1.15;96.79
17060;BME280;8646;49.716;9.266;2024-01-30T07:31:37;101780.63;;;1.14;97.44
17060;BME280;8646;49.716;9.266;2024-01-30T07:34:40;101787.03;;;1.24;97.35
17060;BME280;8646;49.716;9.266;2024-01-30T07:38:03;101777.38;;;1.29;96.92
17060;BME280;8646;49.716;9.266;2024-01-30T07:41:06;101791.38;;;1.17;97.55
17060;BME280;8646;49.716;9.266;2024-01-30T07:44:10;101779.00;;;1.21;97.71
17060;BME280;8646;49.716;9.266;2024-01-30T07:47:13;101784.53;;;1.33;97.33
17060;BME280;8646;49.716;9.266;2024-01-30T07:50:16;101786.53;;;1.44;97.43
17060;BME280;8646;49.716;9.266;2024-01-30T07:53:20;101785.06;;;1.63;95.98
17060;BME280;8646;49.716;9.266;2024-01-30T07:56:23;101784.97;;;1.57;96.04
17060;BME280;8646;49.716;9.266;2024-01-30T07:59:27;101780.50;;;1.56;96.07
17060;BME280;8646;49.716;9.266;2024-01-30T08:02:30;101783.94;;;1.49;96.72
17060;BME280;8646;49.716;9.266;2024-01-30T08:05:33;101783.97;;;1.50;96.82
17060;BME280;8646;49.716;9.266;2024-01-30T08:08:36;101788.50;;;1.56;96.14
17060;BME280;8646;49.716;9.266;2024-01-30T08:11:39;101791.38;;;1.67;96.23
17060;BME280;8646;49.716;9.266;2024-01-30T08:14:43;101801.19;;;1.69;95.84
17060;BME280;8646;49.716;9.266;2024-01-30T08:17:46;101790.56;;;1.72;95.46
17060;BME280;8646;49.716;9.266;2024-01-30T08:20:49;101786.97;;;1.69;95.94
17060;BME280;8646;49.716;9.266;2024-01-30T08:23:52;101792.44;;;1.79;96.52
17060;BME280;8646;49.716;9.266;2024-01-30T08:26:55;101799.56;;;1.77;96.17
17060;BME280;8646;49.716;9.266;2024-01-30T08:30:01;101773.47;;;2.20;93.69
17060;BME280;8646;49.716;9.266;2024-01-30T08:33:04;101791.00;;;2.00;94.21
17060;BME280;8646;49.716;9.266;2024-01-30T08:36:07;101776.13;;;2.17;93.96
17060;BME280;8646;49.716;9.266;2024-01-30T08:39:10;101783.94;;;2.02;94.71
17060;BME280;8646;49.716;9.266;2024-01-30T08:42:13;101789.56;;;2.23;94.01
17060;BME280;8646;49.716;9.266;2024-01-30T08:45:17;101778.97;;;2.29;93.91
17060;BME280;8646;49.716;9.266;2024-01-30T08:48:20;101786.09;;;2.30;94.10
17060;BME280;8646;49.716;9.266;2024-01-30T08:51:24;101779.06;;;2.37;93.66
17060;BME280;8646;49.716;9.266;2024-01-30T08:54:27;101788.97;;;2.42;93.98
17060;BME280;8646;49.716;9.266;2024-01-30T08:57:30;101776.66;;;2.55;93.58
17060;BME280;8646;49.716;9.266;2024-01-30T09:00:34;101779.53;;;2.72;92.03
17060;BME280;8646;49.716;9.266;2024-01-30T09:03:38;101796.19;;;2.49;93.81
17060;BME280;8646;49.716;9.266;2024-01-30T09:06:42;101789.47;;;2.85;91.90
17060;BME280;8646;49.716;9.266;2024-01-30T09:09:45;101784.06;;;2.76;92.47
17060;BME280;8646;49.716;9.266;2024-01-30T09:12:49;101789.47;;;2.85;91.75
17060;BME280;8646;49.716;9.266;2024-01-30T09:15:53;101783.25;;;2.83;92.18
17060;BME280;8646;49.716;9.266;2024-01-30T09:18:56;101781.50;;;2.88;92.69
17060;BME280;8646;49.716;9.266;2024-01-30T09:21:59;101787.81;;;2.91;91.94
17060;BME280;8646;49.716;9.266;2024-01-30T09:25:03;101781.69;;;3.03;91.41
17060;BME280;8646;49.716;9.266;2024-01-30T09:28:06;101777.13;;;2.94;91.22
17060;BME280;8646;49.716;9.266;2024-01-30T09:31:11;101780.50;;;2.78;92.27
17060;BME280;8646;49.716;9.266;2024-01-30T09:34:14;101789.69;;;3.03;91.72
17060;BME280;8646;49.716;9.266;2024-01-30T09:37:17;101793.31;;;3.06;92.28
17060;BME280;8646;49.716;9.266;2024-01-30T09:40:20;101794.25;;;3.12;91.63
17060;BME280;8646;49.716;9.266;2024-01-30T09:43:23;101787.28;;;3.24;91.56
17060;BME280;8646;49.716;9.266;2024-01-30T09:46:31;101775.88;;;3.47;90.22
17060;BME280;8646;49.716;9.266;2024-01-30T09:49:34;101792.81;;;3.44;91.22
17060;BME280;8646;49.716;9.266;2024-01-30T09:52:38;101789.38;;;3.56;90.37
17060;BME280;8646;49.716;9.266;2024-01-30T09:55:43;101798.28;;;3.58;90.43
17060;BME280;8646;49.716;9.266;2024-01-30T09:58:45;101796.50;;;3.57;90.94
17060;BME280;8646;49.716;9.266;2024-01-30T10:01:51;101794.84;;;3.74;90.89
17060;BME280;8646;49.716;9.266;2024-01-30T10:04:54;101770.94;;;3.95;88.71
17060;BME280;8646;49.716;9.266;2024-01-30T10:07:57;101798.56;;;3.91;89.27
17060;BME280;8646;49.716;9.266;2024-01-30T10:11:01;101782.56;;;4.00;88.99
17060;BME280;8646;49.716;9.266;2024-01-30T10:14:04;101793.31;;;4.06;89.76
17060;BME280;8646;49.716;9.266;2024-01-30T10:17:09;101785.38;;;4.17;90.49
17060;BME280;8646;49.716;9.266;2024-01-30T10:20:25;101767.63;;;4.40;88.60
17060;BME280;8646;49.716;9.266;2024-01-30T10:23:28;101774.88;;;4.59;88.32
17060;BME280;8646;49.716;9.266;2024-01-30T10:26:38;101765.16;;;4.87;86.16
17060;BME280;8646;49.716;9.266;2024-01-30T10:29:41;101756.22;;;4.88;85.46
17060;BME280;8646;49.716;9.266;2024-01-30T10:32:45;101759.78;;;4.81;85.81
17060;BME280;8646;49.716;9.266;2024-01-30T10:35:48;101765.16;;;4.87;85.62
17060;BME280;8646;49.716;9.266;2024-01-30T10:38:55;101724.91;;;4.78;85.41
17060;BME280;8646;49.716;9.266;2024-01-30T10:42:04;101753.56;;;5.05;84.85
17060;BME280;8646;49.716;9.266;2024-01-30T10:45:08;101753.63;;;5.23;85.29
17060;BME280;8646;49.716;9.266;2024-01-30T10:48:14;101740.22;;;5.40;83.95
17060;BME280;8646;49.716;9.266;2024-01-30T10:51:24;101749.16;;;5.45;83.42
17060;BME280;8646;49.716;9.266;2024-01-30T10:54:27;101741.13;;;5.51;83.05
17060;BME280;8646;49.716;9.266;2024-01-30T10:57:33;101724.13;;;5.55;83.21
17060;BME280;8646;49.716;9.266;2024-01-30T11:00:36;101724.13;;;5.51;83.33
17060;BME280;8646;49.716;9.266;2024-01-30T11:03:42;101716.94;;;5.60;82.62
17060;BME280;8646;49.716;9.266;2024-01-30T11:06:45;101723.22;;;5.62;82.84
17060;BME280;8646;49.716;9.266;2024-01-30T11:09:52;101724.09;;;5.72;82.26
17060;BME280;8646;49.716;9.266;2024-01-30T11:12:55;101723.22;;;5.70;82.67
17060;BME280;8646;49.716;9.266;2024-01-30T11:16:00;101716.06;;;5.67;82.74
17060;BME280;8646;49.716;9.266;2024-01-30T11:19:10;101719.63;;;5.77;82.65
17060;BME280;8646;49.716;9.266;2024-01-30T11:22:13;101717.84;;;5.79;82.90
17060;BME280;8646;49.716;9.266;2024-01-30T11:25:18;101716.97;;;5.91;82.55
17060;BME280;8646;49.716;9.266;2024-01-30T11:28:22;101711.59;;;5.91;82.81
17060;BME280;8646;49.716;9.266;2024-01-30T11:31:25;101708.88;;;6.06;81.64
17060;BME280;8646;49.716;9.266;2024-01-30T11:34:29;101701.69;;;6.16;81.67
17060;BME280;8646;49.716;9.266;2024-01-30T11:37:36;101698.97;;;6.23;81.20
17060;BME280;8646;49.716;9.266;2024-01-30T11:40:40;101688.25;;;6.14;81.23
17060;BME280;8646;49.716;9.266;2024-01-30T11:43:51;101699.88;;;6.21;82.42
17060;BME280;8646;49.716;9.266;2024-01-30T11:46:54;101693.59;;;6.23;82.21
17060;BME280;8646;49.716;9.266;2024-01-30T11:49:58;101695.31;;;6.36;81.53
17060;BME280;8646;49.716;9.266;2024-01-30T11:53:02;101688.13;;;6.47;81.36
17060;BME280;8646;49.716;9.266;2024-01-30T11:56:07;101674.63;;;6.55;80.35
17060;BME280;8646;49.716;9.266;2024-01-30T11:59:10;101660.28;;;6.56;80.74
17060;BME280;8646;49.716;9.266;2024-01-30T12:02:15;101663.84;;;6.61;81.42
17060;BME280;8646;49.716;9.266;2024-01-30T12:05:21;101664.69;;;6.71;80.51
17060;BME280;8646;49.716;9.266;2024-01-30T12:08:24;101669.13;;;6.73;80.18
17060;BME280;8646;49.716;9.266;2024-01-30T12:11:27;101656.56;;;6.78;80.40
17060;BME280;8646;49.716;9.266;2024-01-30T12:14:31;101657.41;;;6.86;79.86
17060;BME280;8646;49.716;9.266;2024-01-30T12:17:34;101644.75;;;7.01;79.15
17060;BME280;8646;49.716;9.266;2024-01-30T12:20:39;101652.81;;;6.98;79.19
17060;BME280;8646;49.716;9.266;2024-01-30T12:23:42;101651.94;;;7.00;78.70
17060;BME280;8646;49.716;9.266;2024-01-30T12:26:44;101642.13;;;6.93;79.89
17060;BME280;8646;49.716;9.266;2024-01-30T12:29:47;101646.59;;;6.94;79.90
17060;BME280;8646;49.716;9.266;2024-01-30T12:32:51;101633.94;;;7.07;79.40
17060;BME280;8646;49.716;9.266;2024-01-30T12:35:55;101633.00;;;7.12;78.88
17060;BME280;8646;49.716;9.266;2024-01-30T12:39:04;101629.41;;;7.12;78.74
17060;BME280;8646;49.716;9.266;2024-01-30T12:42:07;101615.84;;;7.25;78.35
17060;BME280;8646;49.716;9.266;2024-01-30T12:45:10;101622.13;;;7.26;78.42
17060;BME280;8646;49.716;9.266;2024-01-30T12:48:13;101599.63;;;7.30;77.94
17060;BME280;8646;49.716;9.266;2024-01-30T12:51:17;101611.22;;;7.40;78.89
17060;BME280;8646;49.716;9.266;2024-01-30T12:54:20;101606.69;;;7.45;78.71
17060;BME280;8646;49.716;9.266;2024-01-30T12:57:23;101611.94;;;7.57;78.40
17060;BME280;8646;49.716;9.266;2024-01-30T13:00:26;101602.94;;;7.58;78.10
17060;BME280;8646;49.716;9.266;2024-01-30T13:03:28;101602.94;;;7.59;77.81
17060;BME280;8646;49.716;9.266;2024-01-30T13:06:33;101587.50;;;7.74;76.61
17060;BME280;8646;49.716;9.266;2024-01-30T13:09:36;101592.06;;;7.70;76.86
17060;BME280;8646;49.716;9.266;2024-01-30T13:12:39;101591.09;;;7.76;77.36
17060;BME280;8646;49.716;9.266;2024-01-30T13:15:42;101590.13;;;7.81;77.09
17060;BME280;8646;49.716;9.266;2024-01-30T13:18:45;101592.63;;;7.98;75.89
17060;BME280;8646;49.716;9.266;2024-01-30T13:21:49;101590.03;;;7.87;76.39
17060;BME280;8646;49.716;9.266;2024-01-30T13:24:52;101599.81;;;7.96;75.22
17060;BME280;8646;49.716;9.266;2024-01-30T13:27:55;101611.66;;;7.86;76.74
17060;BME280;8646;49.716;9.266;2024-01-30T13:30:58;101613.53;;;7.76;77.79
17060;BME280;8646;49.716;9.266;2024-01-30T13:34:01;101607.19;;;7.80;77.37
17060;BME280;8646;49.716;9.266;2024-01-30T13:37:09;101618.00;;;7.79;77.72
17060;BME280;8646;49.716;9.266;2024-01-30T13:40:12;101613.44;;;7.85;77.33
17060;BME280;8646;49.716;9.266;2024-01-30T13:43:16;101613.38;;;7.91;76.98
17060;BME280;8646;49.716;9.266;2024-01-30T13:46:19;101603.50;;;7.89;76.98
17060;BME280;8646;49.716;9.266;2024-01-30T13:49:22;101603.41;;;7.98;77.13
17060;BME280;8646;49.716;9.266;2024-01-30T13:52:27;101595.31;;;7.99;76.84
17060;BME280;8646;49.716;9.266;2024-01-30T13:55:38;101601.53;;;8.04;76.86
17060;BME280;8646;49.716;9.266;2024-01-30T13:58:42;101582.72;;;7.98;77.23
17060;BME280;8646;49.716;9.266;2024-01-30T14:01:45;101609.56;;;8.11;77.51
17060;BME280;8646;49.716;9.266;2024-01-30T14:04:48;101595.09;;;8.15;77.04
17060;BME280;8646;49.716;9.266;2024-01-30T14:07:53;101612.06;;;8.24;76.69
17060;BME280;8646;49.716;9.266;2024-01-30T14:10:56;101611.09;;;8.30;76.75
17060;BME280;8646;49.716;9.266;2024-01-30T14:13:59;101613.84;;;8.27;76.54
17060;BME280;8646;49.716;9.266;2024-01-30T14:17:03;101609.31;;;8.27;76.46
17060;BME280;8646;49.716;9.266;2024-01-30T14:20:08;101612.00;;;8.29;76.26
17060;BME280;8646;49.716;9.266;2024-01-30T14:23:13;101608.41;;;8.33;75.53
17060;BME280;8646;49.716;9.266;2024-01-30T14:26:16;101597.78;;;8.18;76.51
17060;BME280;8646;49.716;9.266;2024-01-30T14:29:19;101605.78;;;8.24;76.55
17060;BME280;8646;49.716;9.266;2024-01-30T14:32:22;101607.59;;;8.23;76.73
17060;BME280;8646;49.716;9.266;2024-01-30T14:35:26;101566.56;;;7.98;77.39
17060;BME280;8646;49.716;9.266;2024-01-30T14:38:30;101614.81;;;8.20;77.29
17060;BME280;8646;49.716;9.266;2024-01-30T14:41:33;101610.28;;;8.23;77.44
17060;BME280;8646;49.716;9.266;2024-01-30T14:44:36;101593.19;;;8.26;76.68
17060;BME280;8646;49.716;9.266;2024-01-30T14:47:39;101589.56;;;8.27;76.79
17060;BME280;8646;49.716;9.266;2024-01-30T14:50:42;101599.47;;;8.25;77.27
17060;BME280;8646;49.716;9.266;2024-01-30T14:53:47;101605.81;;;8.21;77.50
17060;BME280;8646;49.716;9.266;2024-01-30T14:56:50;101609.41;;;8.20;77.18
17060;BME280;8646;49.716;9.266;2024-01-30T14:59:53;101578.25;;;7.96;77.20
17060;BME280;8646;49.716;9.266;2024-01-30T15:02:56;101615.69;;;8.20;76.92
17060;BME280;8646;49.716;9.266;2024-01-30T15:05:58;101621.19;;;8.13;77.31
17060;BME280;8646;49.716;9.266;2024-01-30T15:09:03;101618.50;;;8.13;77.24
17060;BME280;8646;49.716;9.266;2024-01-30T15:12:06;101620.38;;;8.08;77.77
17060;BME280;8646;49.716;9.266;2024-01-30T15:15:09;101624.84;;;8.10;77.76
17060;BME280;8646;49.716;9.266;2024-01-30T15:18:31;101618.56;;;8.10;77.62
17060;BME280;8646;49.716;9.266;2024-01-30T15:21:54;101623.16;;;8.01;77.88
17060;BME280;8646;49.716;9.266;2024-01-30T15:25:16;101635.75;;;7.99;78.12
17060;BME280;8646;49.716;9.266;2024-01-30T15:28:38;101617.88;;;7.89;77.93
17060;BME280;8646;49.716;9.266;2024-01-30T15:31:50;101637.63;;;7.90;78.43
17060;BME280;8646;49.716;9.266;2024-01-30T15:34:53;101635.81;;;7.93;78.08
17060;BME280;8646;49.716;9.266;2024-01-30T15:37:59;101644.03;;;7.81;78.35
17060;BME280;8646;49.716;9.266;2024-01-30T15:41:03;101645.97;;;7.65;79.61
17060;BME280;8646;49.716;9.266;2024-01-30T15:44:06;101655.84;;;7.66;79.67
17060;BME280;8646;49.716;9.266;2024-01-30T15:47:09;101658.47;;;7.74;79.53
17060;BME280;8646;49.716;9.266;2024-01-30T15:50:12;101661.09;;;7.82;78.70
17060;BME280;8646;49.716;9.266;2024-01-30T15:53:15;101659.31;;;7.79;78.95
17060;BME280;8646;49.716;9.266;2024-01-30T15:56:19;101664.75;;;7.78;79.15
17060;BME280;8646;49.716;9.266;2024-01-30T15:59:22;101658.47;;;7.74;79.19
17060;BME280;8646;49.716;9.266;2024-01-30T16:02:26;101661.16;;;7.76;78.70
17060;BME280;8646;49.716;9.266;2024-01-30T16:05:29;101668.44;;;7.68;79.26
17060;BME280;8646;49.716;9.266;2024-01-30T16:08:31;101671.19;;;7.60;80.11
17060;BME280;8646;49.716;9.266;2024-01-30T16:11:36;101661.34;;;7.54;79.67
17060;BME280;8646;49.716;9.266;2024-01-30T16:14:40;101674.88;;;7.50;80.50
17060;BME280;8646;49.716;9.266;2024-01-30T16:17:43;101674.72;;;7.65;79.58
17060;BME280;8646;49.716;9.266;2024-01-30T16:20:46;101680.19;;;7.56;79.88
17060;BME280;8646;49.716;9.266;2024-01-30T16:23:49;101687.53;;;7.39;80.93
17060;BME280;8646;49.716;9.266;2024-01-30T16:26:53;101686.66;;;7.37;81.63